DAOV

Ghriss Airport

Algeria
METAR DAOV 231400Z 29006KT 9999 SCT026 14/06 Q1003
Observed Flight Rules
Feb-23 @ 14:00 UTC (29 minutes ago) Visual Flight Rules
Wind Visibility Clouds
290° at 6 knots 10,000+ meters
  • Scattered at 2,600' AGL
Temperatures Readings
Current 14°C / 57°F
Dewpoint 6°C / 43°F
Humidity 59%
Altimeter 29.62" Hg
Pressure 1003 hPa
Elevation 514
METAR DAOV 231400Z 29006KT 9999 SCT026 14/06 Q1003
Observed Flight Rules
Feb-23 @ 14:00 UTC
(29 minutes ago)
VFR
Wind Visibility
290° at 6 knots 10,000+ meters
Clouds
  • Scattered at 2,600' AGL
Temperature Dewpoint
14°C / 57°F 6°C / 43°F
Humidity Altimeter Pressure
59% 29.62" Hg 1003 hPa